.
WxDataArchive / Data Records for 2006-06-26
2006-06-25 June 2006 2006-06-27

Data Records for Monday, 26 June 2006

Time	Temp	Chill	HIndex	Humid	Dewpt	 Wind 	HiWind	WindDir	Rain 	Barom 
-----	----	-----	------	-----	-----	------	------	-------	-----	----- 
00:00	67.6	67.6	67.6	66	55.8	0	2	112	0.00	29.945 
00:05	67.4	67.4	67.4	66	55.6	0	1	112	0.00	29.945 
00:10	67.3	67.3	67.3	66	55.5	0	0	---	0.00	29.945 
00:15	67.1	67.1	67.1	67	55.8	0	0	---	0.00	29.943 
00:20	66.6	66.6	66.6	68	55.7	0	0	---	0.00	29.943 
00:25	66.3	66.3	66.3	69	55.8	0	0	---	0.00	29.943 
00:30	66.0	66.0	66.0	70	55.9	0	0	---	0.00	29.943 
00:35	65.8	65.8	65.8	70	55.7	0	0	---	0.00	29.943 
00:40	65.5	65.5	65.5	71	55.8	0	0	---	0.00	29.943 
00:45	65.3	65.3	65.3	72	56.0	0	0	---	0.00	29.940 
00:50	65.0	65.0	65.0	72	55.7	0	0	---	0.00	29.940 
00:55	64.7	64.7	64.7	73	55.8	0	0	---	0.00	29.940 
01:00	64.5	64.5	64.5	74	56.0	0	0	---	0.00	29.942 
01:05	64.2	64.2	64.2	75	56.1	0	0	---	0.00	29.942 
01:10	63.9	63.9	63.9	75	55.8	0	0	---	0.00	29.942 
01:15	63.7	63.7	63.7	75	55.6	0	0	---	0.00	29.935 
01:20	63.4	63.4	63.4	76	55.7	0	0	---	0.00	29.935 
01:25	63.1	63.1	63.1	76	55.4	0	0	---	0.00	29.935 
01:30	62.7	62.7	62.7	77	55.4	0	0	---	0.00	29.933 
01:35	62.6	62.6	62.6	77	55.3	0	0	---	0.00	29.933 
01:40	62.3	62.3	62.3	78	55.3	0	0	---	0.00	29.933 
01:45	62.1	62.1	62.1	78	55.2	0	0	---	0.00	29.929 
01:50	61.8	61.8	61.8	79	55.2	0	0	---	0.00	29.929 
01:55	61.6	61.6	61.6	80	55.4	0	0	---	0.00	29.929 
02:00	61.5	61.5	61.5	80	55.3	0	0	---	0.00	29.928 
02:05	61.2	61.2	61.2	81	55.3	0	0	---	0.00	29.928 
02:10	61.0	61.0	61.0	82	55.5	0	0	---	0.00	29.928 
02:15	61.0	61.0	61.0	82	55.5	0	0	---	0.00	29.927 
02:20	60.9	60.9	60.9	82	55.4	0	0	---	0.00	29.927 
02:25	60.9	60.9	60.9	82	55.4	0	0	---	0.00	29.927 
02:30	61.0	61.0	61.0	81	55.1	0	0	---	0.00	29.928 
02:35	61.0	61.0	61.0	81	55.1	0	0	---	0.00	29.928 
02:40	61.0	61.0	61.0	81	55.1	0	0	---	0.00	29.928 
02:45	61.0	61.0	61.0	81	55.1	0	0	---	0.00	29.927 
02:50	60.9	60.9	60.9	80	54.7	0	0	---	0.00	29.927 
02:55	60.7	60.7	60.7	80	54.5	0	0	---	0.00	29.927 
03:00	60.5	60.5	60.5	80	54.3	0	0	---	0.00	29.922 
03:05	60.4	60.4	60.4	80	54.2	0	0	---	0.00	29.922 
03:10	60.4	60.4	60.4	80	54.2	0	0	---	0.00	29.922 
03:15	60.2	60.2	60.2	80	54.0	0	0	---	0.00	29.923 
03:20	60.2	60.2	60.2	80	54.0	0	0	---	0.00	29.923 
03:25	60.2	60.2	60.2	80	54.0	0	0	---	0.00	29.923 
03:30	60.1	60.1	60.1	80	53.9	0	0	---	0.00	29.921 
03:35	60.1	60.1	60.1	80	53.9	0	0	---	0.00	29.921 
03:40	59.9	59.9	59.9	81	54.1	0	0	---	0.00	29.921 
03:45	59.9	59.9	59.9	81	54.1	0	0	---	0.00	29.917 
03:50	59.8	59.8	59.8	82	54.3	0	0	---	0.00	29.917 
03:55	59.6	59.6	59.6	83	54.4	0	0	---	0.00	29.917 
04:00	59.6	59.6	59.6	83	54.4	0	0	---	0.00	29.917 
04:05	59.5	59.5	59.5	83	54.3	0	0	---	0.00	29.917 
04:10	59.3	59.3	59.3	84	54.5	0	0	---	0.00	29.917 
04:15	59.2	59.2	59.2	84	54.4	0	0	---	0.00	29.922 
04:20	59.2	59.2	59.2	84	54.4	0	0	---	0.00	29.922 
04:25	59.0	59.0	59.0	84	54.2	0	0	---	0.00	29.922 
04:30	59.0	59.0	59.0	85	54.5	0	0	---	0.00	29.921 
04:35	59.0	59.0	59.0	85	54.5	0	0	---	0.00	29.921 
04:40	59.0	59.0	59.0	85	54.5	0	0	---	0.00	29.921 
04:45	58.9	58.9	58.9	85	54.4	0	0	---	0.00	29.923 
04:50	58.9	58.9	58.9	86	54.7	0	0	---	0.00	29.923 
04:55	58.7	58.7	58.7	86	54.5	0	0	---	0.00	29.923 
05:00	58.7	58.7	58.7	87	54.8	0	0	---	0.00	29.920 
05:05	58.4	58.4	58.4	87	54.5	0	0	---	0.00	29.920 
05:10	58.3	58.3	58.3	88	54.8	0	0	---	0.00	29.920 
05:15	58.1	58.1	58.1	88	54.6	0	0	---	0.00	29.925 
05:20	58.0	58.0	58.0	88	54.5	0	0	---	0.00	29.925 
05:25	58.0	58.0	58.0	89	54.8	0	0	---	0.00	29.925 
05:30	57.6	57.6	57.6	89	54.4	0	0	---	0.00	29.924 
05:35	57.5	57.5	57.5	89	54.3	0	0	---	0.00	29.924 
05:40	57.3	57.3	57.3	89	54.1	0	0	---	0.00	29.924 
05:45	57.2	57.2	57.2	90	54.3	0	0	---	0.00	29.927 
05:50	57.0	57.0	57.0	90	54.1	0	0	---	0.00	29.927 
05:55	57.0	57.0	57.0	90	54.1	0	0	---	0.00	29.927 
06:00	56.9	56.9	56.9	91	54.3	0	0	---	0.00	29.928 
06:05	57.0	57.0	57.0	91	54.4	0	0	---	0.00	29.928 
06:10	57.0	57.0	57.0	91	54.4	0	0	---	0.00	29.928 
06:15	57.0	57.0	57.0	92	54.7	0	0	---	0.00	29.927 
06:20	57.0	57.0	57.0	92	54.7	0	0	---	0.00	29.927 
06:25	57.0	57.0	57.0	92	54.7	0	0	---	0.00	29.927 
06:30	57.0	57.0	57.0	92	54.7	0	0	---	0.00	29.927 
06:35	57.0	57.0	57.0	92	54.7	0	0	---	0.00	29.927 
06:40	57.5	57.5	57.5	92	55.2	0	1	112	0.00	29.927 
06:45	58.1	58.1	58.1	91	55.5	0	1	112	0.00	29.926 
06:50	58.7	58.7	58.7	89	55.5	0	2	112	0.00	29.926 
06:55	59.3	59.3	59.3	88	55.7	0	1	112	0.00	29.926 
07:00	59.8	59.8	59.8	87	55.9	0	3	112	0.00	29.920 
07:05	60.5	60.5	60.5	84	55.6	1	3	112	0.00	29.920 
07:10	61.3	61.3	61.3	83	56.1	1	4	112	0.00	29.920 
07:15	61.8	61.8	61.8	81	55.9	1	4	45	0.00	29.920 
07:20	62.3	62.3	62.3	81	56.4	1	4	112	0.00	29.920 
07:25	62.6	62.6	62.6	79	56.0	1	2	90	0.00	29.920 
07:30	63.1	63.1	63.1	78	56.1	1	4	112	0.00	29.924 
07:35	63.7	63.7	63.7	75	55.6	2	4	112	0.00	29.924 
07:40	64.2	64.2	64.2	76	56.5	0	2	112	0.00	29.924 
07:45	64.3	64.3	64.3	75	56.2	1	3	90	0.00	29.928 
07:50	64.2	64.2	64.2	75	56.1	1	3	90	0.00	29.928 
07:55	64.0	64.0	64.0	75	55.9	1	4	90	0.00	29.928 
08:00	64.0	64.0	64.0	76	56.3	1	3	90	0.00	29.925 
08:05	64.2	64.2	64.2	75	56.1	1	4	90	0.00	29.925 
08:10	64.3	64.3	64.3	77	56.9	0	2	90	0.00	29.925 
08:15	64.5	64.5	64.5	74	56.0	1	3	90	0.00	29.929 
08:20	64.5	64.5	64.5	73	55.6	2	4	90	0.00	29.929 
08:25	64.7	64.7	64.7	73	55.8	1	5	90	0.00	29.929 
08:30	64.7	64.7	64.7	73	55.8	2	5	112	0.00	29.928 
08:35	64.8	64.8	64.8	74	56.3	2	4	90	0.00	29.928 
08:40	65.0	65.0	65.0	74	56.5	1	3	90	0.00	29.928 
08:45	65.2	65.2	65.2	74	56.7	1	3	90	0.00	29.929 
08:50	65.3	65.3	65.3	73	56.4	1	3	90	0.00	29.929 
08:55	65.6	65.6	65.6	74	57.1	1	3	90	0.00	29.929 
09:00	66.0	66.0	66.0	73	57.1	0	2	90	0.00	29.930 
09:05	66.6	66.6	66.6	71	56.9	1	3	90	0.00	29.930 
09:10	67.6	67.6	67.6	70	57.5	2	5	90	0.00	29.930 
09:15	68.3	68.3	68.3	69	57.7	2	4	112	0.00	29.929 
09:20	68.9	68.9	68.9	69	58.3	1	4	112	0.00	29.929 
09:25	69.4	69.4	69.4	68	58.4	2	6	90	0.00	29.929 
09:30	69.4	69.4	69.4	70	59.2	2	5	112	0.00	29.929 
09:35	69.8	69.8	69.8	69	59.2	2	4	90	0.00	29.929 
09:40	70.1	70.1	70.1	69	59.4	2	4	112	0.00	29.929 
09:45	70.4	70.4	70.4	69	59.7	2	6	90	0.00	29.926 
09:50	70.8	70.8	70.8	70	60.5	1	5	90	0.00	29.926 
09:55	71.5	71.5	71.5	67	60.0	2	4	90	0.00	29.926 
10:00	71.6	71.6	71.6	70	61.3	2	4	90	0.00	29.922 
10:05	71.6	71.6	71.6	69	60.9	2	5	90	0.00	29.922 
10:10	71.8	71.8	71.8	70	61.5	2	5	90	0.00	29.922 
10:15	72.1	72.1	72.1	70	61.8	2	4	112	0.00	29.927 
10:20	72.3	72.3	72.3	71	62.4	2	5	90	0.00	29.927 
10:25	72.3	72.3	72.3	71	62.4	2	5	90	0.00	29.927 
10:30	72.3	72.3	72.3	70	62.0	2	4	90	0.00	29.924 
10:35	72.5	72.5	72.5	70	62.1	2	5	90	0.00	29.924 
10:40	73.2	73.2	73.2	70	62.8	1	4	90	0.00	29.924 
10:45	73.9	73.9	73.9	67	62.2	2	5	90	0.00	29.921 
10:50	74.0	74.0	74.0	68	62.8	2	3	112	0.00	29.921 
10:55	74.4	74.4	74.4	68	63.1	1	4	90	0.00	29.921 
11:00	75.1	75.1	76.9	68	63.8	2	5	90	0.00	29.920 
11:05	75.3	75.3	77.1	68	64.0	1	3	90	0.00	29.920 
11:10	75.3	75.3	77.3	65	62.7	2	5	112	0.00	29.920 
11:15	75.6	75.6	77.6	64	62.5	1	4	112	0.00	29.915 
11:20	75.6	75.6	77.5	65	63.0	2	4	112	0.00	29.915 
11:25	75.8	75.8	77.7	65	63.2	2	4	90	0.00	29.915 
11:30	76.0	76.0	77.9	65	63.4	2	4	90	0.00	29.912 
11:35	76.1	76.1	78.0	63	62.6	2	5	90	0.00	29.912 
11:40	75.4	75.4	77.3	67	63.7	2	4	90	0.00	29.912 
11:45	75.8	75.8	77.7	64	62.7	2	4	90	0.00	29.910 
11:50	76.3	76.3	78.2	64	63.2	1	5	90	0.00	29.910 
11:55	76.3	76.3	78.2	64	63.2	2	5	112	0.00	29.910 
12:00	77.0	77.0	78.8	67	65.2	1	3	112	0.00	29.909 
12:05	77.6	77.6	79.4	63	64.0	2	4	90	0.00	29.909 
12:10	77.7	77.7	79.5	63	64.1	1	4	90	0.00	29.909 
12:15	77.9	77.9	79.6	60	62.9	2	5	90	0.00	29.910 
12:20	77.4	77.4	79.2	63	63.8	2	4	112	0.00	29.910 
12:25	77.9	77.9	79.6	60	62.9	1	5	90	0.00	29.910 
12:30	78.1	78.1	79.8	60	63.1	2	4	90	0.00	29.911 
12:35	78.3	78.3	79.9	59	62.8	2	5	68	0.00	29.911 
12:40	78.5	78.5	80.2	60	63.4	3	7	90	0.00	29.911 
12:45	78.5	78.5	80.0	58	62.5	3	9	90	0.00	29.911 
12:50	78.5	78.5	80.0	58	62.5	2	4	112	0.00	29.911 
12:55	78.8	78.8	80.4	59	63.2	3	10	90	0.00	29.911 
13:00	79.0	79.0	80.5	58	62.9	2	5	90	0.00	29.907 
13:05	79.6	79.6	81.2	58	63.5	2	5	90	0.00	29.907 
13:10	79.6	79.6	81.2	58	63.5	3	7	90	0.00	29.907 
13:15	79.6	79.6	80.9	55	62.0	2	6	90	0.00	29.903 
13:20	79.6	79.6	81.3	60	64.5	3	6	112	0.00	29.903 
13:25	80.1	80.1	81.6	57	63.5	1	5	112	0.00	29.903 
13:30	80.3	80.3	81.7	56	63.1	2	6	90	0.00	29.900 
13:35	80.1	80.1	81.7	58	64.0	2	5	90	0.00	29.900 
13:40	79.9	79.9	81.4	57	63.3	2	6	112	0.00	29.900 
13:45	79.9	79.9	81.3	56	62.8	2	6	90	0.00	29.897 
13:50	80.5	80.5	81.3	50	60.1	2	4	112	0.00	29.897 
13:55	80.5	80.5	81.2	49	59.6	2	6	90	0.00	29.897 
14:00	80.1	80.1	80.8	49	59.2	2	5	112	0.00	29.894 
14:05	79.8	79.8	80.6	50	59.5	2	6	112	0.00	29.894 
14:10	80.1	80.1	80.9	50	59.8	1	5	112	0.00	29.894 
14:15	80.3	80.3	81.1	50	59.9	1	4	90	0.00	29.891 
14:20	80.7	80.7	81.1	47	58.6	1	3	45	0.00	29.891 
14:25	80.3	80.3	81.9	58	64.2	0	3	45	0.00	29.891 
14:30	78.6	78.6	80.1	58	62.6	1	4	112	0.00	29.887 
14:35	77.2	77.2	79.0	62	63.2	1	5	45	0.00	29.887 
14:40	76.0	76.0	78.1	57	59.6	2	4	90	0.00	29.887 
14:45	75.1	75.1	77.3	63	61.6	1	3	22	0.00	29.886 
14:50	74.6	74.6	74.6	56	57.8	2	4	90	0.00	29.886 
14:55	75.8	75.8	77.9	59	60.4	2	7	90	0.00	29.886 
15:00	75.6	75.6	77.8	58	59.8	1	3	90	0.00	29.883 
15:05	75.6	75.6	77.7	61	61.2	1	4	248	0.00	29.883 
15:10	76.7	76.7	78.5	53	58.3	2	5	90	0.00	29.883 
15:15	77.6	77.6	79.3	60	62.6	1	5	90	0.00	29.879 
15:20	78.1	78.1	79.3	50	57.9	3	5	90	0.00	29.879 
15:25	78.6	78.6	79.4	46	56.1	2	4	90	0.00	29.879 
15:30	78.8	78.8	79.7	49	58.0	0	3	90	0.00	29.871 
15:35	79.2	79.2	80.1	50	58.9	1	2	90	0.00	29.871 
15:40	79.8	79.8	80.6	50	59.5	1	5	90	0.00	29.871 
15:45	79.9	79.9	80.5	48	58.4	2	4	68	0.00	29.867 
15:50	79.2	79.2	80.0	48	57.8	2	4	90	0.00	29.867 
15:55	78.8	78.8	79.7	48	57.4	0	1	90	0.00	29.867 
16:00	78.6	78.6	79.4	46	56.1	1	2	90	0.00	29.866 
16:05	78.5	78.5	79.4	47	56.6	0	2	90	0.00	29.866 
16:10	78.5	78.5	79.3	45	55.4	0	2	90	0.00	29.866 
16:15	78.6	78.6	79.4	46	56.1	1	2	90	0.00	29.863 
16:20	79.2	79.2	79.9	47	57.2	0	2	90	0.00	29.863 
16:25	80.3	80.3	80.6	45	57.0	1	3	90	0.00	29.863 
16:30	80.9	80.9	80.4	38	52.9	1	3	90	0.00	29.857 
16:35	81.6	81.6	81.0	39	54.2	1	3	225	0.00	29.857 
16:40	82.2	82.2	81.7	41	56.1	1	3	112	0.00	29.857 
16:45	82.8	82.8	82.0	39	55.3	1	2	112	0.00	29.852 
16:50	83.6	83.6	83.7	45	60.0	0	3	112	0.00	29.852 
16:55	84.0	84.0	83.3	40	57.0	1	4	90	0.00	29.852 
17:00	84.1	84.1	83.4	40	57.1	1	3	90	0.00	29.849 
17:05	84.0	84.0	83.1	39	56.3	2	4	90	0.00	29.849 
17:10	83.8	83.8	83.4	42	58.2	1	4	90	0.00	29.849 
17:15	82.6	82.6	82.1	41	56.5	2	5	90	0.00	29.849 
17:20	81.8	81.8	81.3	40	55.1	1	4	90	0.00	29.849 
17:25	81.4	81.4	81.3	43	56.7	1	2	90	0.00	29.849 
17:30	81.8	81.8	81.2	39	54.4	1	3	90	0.00	29.845 
17:35	82.0	82.0	81.5	40	55.3	1	4	90	0.00	29.845 
17:40	82.0	82.0	81.3	39	54.6	1	2	90	0.00	29.845 
17:45	82.2	82.2	82.0	43	57.4	1	3	112	0.00	29.841 
17:50	81.8	81.8	81.6	43	57.1	2	4	112	0.00	29.841 
17:55	81.6	81.6	81.2	41	55.6	2	3	90	0.00	29.841 
18:00	81.2	81.2	81.2	44	57.2	1	2	112	0.00	29.837 
18:05	80.9	80.9	80.9	43	56.3	1	3	112	0.00	29.837 
18:10	80.5	80.5	80.8	46	57.8	1	2	112	0.00	29.837 
18:15	80.3	80.3	80.7	46	57.6	0	1	112	0.00	29.831 
18:20	80.3	80.3	80.5	44	56.4	0	3	112	0.00	29.831 
18:25	80.1	80.1	80.5	46	57.4	0	1	112	0.00	29.831 
18:30	80.1	80.1	80.5	46	57.4	0	1	112	0.00	29.824 
18:35	80.1	80.1	80.4	45	56.8	0	2	112	0.00	29.824 
18:40	80.3	80.3	80.9	48	58.8	1	2	112	0.00	29.824 
18:45	80.5	80.5	81.3	50	60.1	0	2	45	0.00	29.822 
18:50	80.7	80.7	81.0	46	58.0	1	3	90	0.00	29.822 
18:55	80.9	80.9	81.3	47	58.8	1	3	112	0.00	29.822 
19:00	81.1	81.1	81.3	45	57.7	1	3	112	0.00	29.825 
19:05	81.1	81.1	81.4	46	58.3	0	1	90	0.00	29.825 
19:10	80.9	80.9	81.1	45	57.5	0	1	90	0.00	29.825 
19:15	80.5	80.5	80.8	46	57.8	0	2	90	0.00	29.826 
19:20	80.1	80.1	80.5	46	57.4	0	1	90	0.00	29.826 
19:25	79.8	79.8	80.4	47	57.8	0	1	90	0.00	29.826 
19:30	79.6	79.6	80.2	47	57.6	0	0	---	0.00	29.830 
19:35	79.4	79.4	80.1	48	58.0	0	1	90	0.00	29.830 
19:40	79.2	79.2	80.0	48	57.8	0	0	---	0.00	29.830 
19:45	78.8	78.8	79.7	48	57.4	0	0	---	0.00	29.833 
19:50	78.8	78.8	79.9	51	59.1	0	1	90	0.00	29.833 
19:55	78.6	78.6	79.8	52	59.5	0	1	90	0.00	29.833 
20:00	78.5	78.5	79.7	52	59.4	0	1	90	0.00	29.835 
20:05	78.1	78.1	79.5	53	59.6	0	1	90	0.00	29.835 
20:10	77.9	77.9	79.3	53	59.4	0	0	---	0.00	29.835 
20:15	77.7	77.7	79.2	53	59.2	0	0	---	0.00	29.834 
20:20	77.7	77.7	79.2	54	59.7	0	1	90	0.00	29.834 
20:25	77.7	77.7	79.2	55	60.2	0	1	90	0.00	29.834 
20:30	77.7	77.7	79.2	54	59.7	0	1	90	0.00	29.832 
20:35	77.9	77.9	79.4	56	60.9	0	1	90	0.00	29.832 
20:40	77.7	77.7	79.3	56	60.7	0	1	90	0.00	29.832 
20:45	77.7	77.7	79.2	55	60.2	0	0	---	0.00	29.834 
20:50	77.4	77.4	79.0	56	60.5	0	0	---	0.00	29.834 
20:55	77.2	77.2	78.9	56	60.3	0	0	---	0.00	29.834 
21:00	77.0	77.0	78.7	56	60.1	0	0	---	0.00	29.835 
21:05	76.8	76.8	78.6	57	60.4	0	0	---	0.00	29.835 
21:10	76.7	76.7	78.5	58	60.8	0	0	---	0.00	29.835 
21:15	76.5	76.5	78.4	58	60.6	0	0	---	0.00	29.829 
21:20	76.3	76.3	78.2	58	60.4	0	0	---	0.00	29.829 
21:25	76.1	76.1	78.1	58	60.2	0	0	---	0.00	29.829 
21:30	76.0	76.0	78.0	59	60.6	0	0	---	0.00	29.830 
21:35	75.8	75.8	77.9	60	60.9	0	0	---	0.00	29.830 
21:40	75.6	75.6	77.7	61	61.2	0	0	---	0.00	29.830 
21:45	75.4	75.4	77.5	63	61.9	0	0	---	0.00	29.828 
21:50	75.3	75.3	77.5	62	61.4	0	0	---	0.00	29.828 
21:55	75.1	75.1	77.4	61	60.7	0	0	---	0.00	29.828 
22:00	74.9	74.9	74.9	62	61.0	0	0	---	0.00	29.828 
22:05	74.9	74.9	74.9	62	61.0	0	0	---	0.00	29.828 
22:10	74.7	74.7	74.7	62	60.8	0	0	---	0.00	29.828 
22:15	74.6	74.6	74.6	62	60.7	0	0	---	0.00	29.827 
22:20	74.6	74.6	74.6	62	60.7	0	0	---	0.00	29.827 
22:25	74.6	74.6	74.6	62	60.7	0	0	---	0.00	29.827 
22:30	74.4	74.4	74.4	62	60.5	0	1	90	0.00	29.832 
22:35	74.2	74.2	74.2	63	60.8	0	0	---	0.00	29.832 
22:40	74.0	74.0	74.0	64	61.0	0	0	---	0.00	29.832 
22:45	73.9	73.9	73.9	65	61.4	1	2	90	0.00	29.844 
22:50	73.7	73.7	73.7	65	61.2	2	4	248	0.00	29.844 
22:55	73.0	73.0	73.0	65	60.5	2	4	248	0.00	29.844 
23:00	72.1	72.1	72.1	62	58.3	3	5	270	0.00	29.850 
23:05	71.3	71.3	71.3	62	57.6	2	5	270	0.00	29.850 
23:10	70.6	70.6	70.6	63	57.4	2	4	292	0.00	29.850 
23:15	70.1	70.1	70.1	65	57.8	1	5	270	0.00	29.853 
23:20	69.8	69.8	69.8	67	58.3	1	2	315	0.00	29.853 
23:25	69.6	69.6	69.6	69	59.0	1	3	315	0.00	29.853 
23:30	69.4	69.4	69.4	70	59.2	0	2	315	0.00	29.851 
23:35	69.4	69.4	69.4	71	59.6	1	3	315	0.00	29.851 
23:40	69.3	69.3	69.3	71	59.5	0	2	315	0.00	29.851 
23:45	69.3	69.3	69.3	72	59.9	0	2	315	0.00	29.855 
23:50	69.3	69.3	69.3	71	59.5	0	1	315	0.00	29.855 
23:55	69.1	69.1	69.1	70	58.9	0	1	315	0.00	29.855 

CoCoRaHS
IN-AL-39
A2 Web Hosting
Creative Commons License
GoDaddy
Look for:

loaded 2017-10-17 22:11:32 • last modified 2010-11-18 10:43:29
Privacy PolicyDisclaimer
• wx.awcolley.com is powered by PmWiki v.2002016 •
• all content (unless otherwise noted) © 2017 A W Colley